Time;durP1;ratioP1;P1;durP2;ratioP2;P2;SDS_P1;SDS_P2;PMS_P1;PMS_P2;Temp;Humidity;BMP_temperature;BMP_pressure;BME280_temperature;BME280_humidity;BME280_pressure;Samples;Min_cycle;Max_cycle;Signal;HPM_P1;HPM_P2
2023/12/15 00:00:03;;;;;;;3.92;1.80;;;;;;;6.20;100.00;100604.03;336934;28;4602;-76
2023/12/15 00:00:19;;;;;;;4.57;2.20;;;;;;;6.13;100.00;100615.19;335742;28;17920;-79
2023/12/15 00:00:31;;;;;;;5.53;2.47;;;;;;;6.13;100.00;100610.03;332832;28;18806;-77
2023/12/15 00:00:44;;;;;;;5.65;2.58;;;;;;;6.13;100.00;100608.31;332873;28;13810;-77
2023/12/15 00:00:56;;;;;;;4.10;2.33;;;;;;;6.17;100.00;100604.00;335644;28;4599;-77
2023/12/15 00:01:08;;;;;;;4.15;2.28;;;;;;;6.15;100.00;100605.72;335480;28;14123;-77
2023/12/15 00:01:20;;;;;;;3.75;2.25;;;;;;;6.18;100.00;100605.75;328932;28;18384;-77
2023/12/15 00:01:32;;;;;;;3.33;2.05;;;;;;;6.17;100.00;100604.84;337239;28;4668;-77
2023/12/15 00:01:45;;;;;;;3.78;2.20;;;;;;;6.17;100.00;100612.59;334544;28;18282;-77
2023/12/15 00:01:57;;;;;;;4.57;2.47;;;;;;;6.21;100.00;100603.16;337407;28;5205;-77
2023/12/15 00:02:09;;;;;;;4.32;2.30;;;;;;;6.27;100.00;100602.31;337298;28;5076;-77
2023/12/15 00:02:21;;;;;;;4.15;2.17;;;;;;;6.31;100.00;100604.88;334622;28;18006;-77
2023/12/15 00:02:33;;;;;;;3.45;1.90;;;;;;;6.32;100.00;100606.59;335863;28;4573;-77
2023/12/15 00:02:45;;;;;;;3.97;1.85;;;;;;;6.34;100.00;100607.47;329038;28;5921;-77
2023/12/15 00:02:57;;;;;;;3.85;1.88;;;;;;;6.37;100.00;100606.59;336230;28;4679;-77
2023/12/15 00:03:09;;;;;;;4.20;1.90;;;;;;;6.37;100.00;100611.75;333487;28;13499;-76
2023/12/15 00:03:21;;;;;;;4.35;1.90;;;;;;;6.37;100.00;100606.59;335627;28;5528;-77
2023/12/15 00:03:33;;;;;;;3.83;1.73;;;;;;;6.35;100.00;100608.31;335850;28;5576;-77
2023/12/15 00:03:45;;;;;;;3.85;1.70;;;;;;;6.33;100.00;100605.72;331546;28;18180;-77
2023/12/15 00:03:57;;;;;;;3.30;1.80;;;;;;;6.26;100.00;100614.34;334599;28;5298;-77
2023/12/15 00:04:09;;;;;;;3.60;2.05;;;;;;;6.25;100.00;100602.28;334945;28;5092;-77
2023/12/15 00:04:21;;;;;;;4.88;2.30;;;;;;;6.23;100.00;100608.31;328213;28;18273;-77
2023/12/15 00:04:33;;;;;;;5.07;2.45;;;;;;;6.14;100.00;100614.34;336228;28;4569;-77
2023/12/15 00:04:46;;;;;;;4.25;2.17;;;;;;;6.16;100.00;100610.91;333222;28;18113;-77
2023/12/15 00:04:58;;;;;;;3.38;1.98;;;;;;;6.19;100.00;100616.06;335812;28;4896;-77
2023/12/15 00:05:13;;;;;;;3.42;1.75;;;;;;;6.23;100.00;100605.75;333331;28;17904;-77
2023/12/15 00:05:25;;;;;;;3.90;1.75;;;;;;;6.17;100.00;100617.78;335693;28;4734;-77
2023/12/15 00:05:37;;;;;;;3.83;1.60;;;;;;;6.17;100.00;100610.03;329768;28;18200;-77
2023/12/15 00:05:50;;;;;;;3.50;1.58;;;;;;;6.20;100.00;100614.34;337425;28;5806;-77
2023/12/15 00:06:02;;;;;;;2.72;1.48;;;;;;;6.22;100.00;100617.78;334215;28;17998;-77
2023/12/15 00:06:14;;;;;;;2.78;1.48;;;;;;;6.10;100.00;100616.06;337972;28;5331;-77
2023/12/15 00:06:26;;;;;;;3.17;1.60;;;;;;;6.13;100.00;100622.94;334739;28;18541;-77
2023/12/15 00:06:39;;;;;;;2.92;1.70;;;;;;;6.14;100.00;100627.25;337614;28;4701;-77
2023/12/15 00:06:51;;;;;;;2.95;1.70;;;;;;;6.15;100.00;100623.81;334088;28;18131;-77
2023/12/15 00:07:03;;;;;;;2.80;1.75;;;;;;;6.16;100.00;100628.13;337407;28;4650;-77
2023/12/15 00:07:15;;;;;;;2.67;1.70;;;;;;;6.19;100.00;100617.78;333066;28;4733;-77
2023/12/15 00:07:27;;;;;;;3.08;1.60;;;;;;;6.23;100.00;100622.09;334708;28;17800;-77
2023/12/15 00:07:39;;;;;;;3.30;1.40;;;;;;;6.26;100.00;100614.34;337876;28;5866;-77
2023/12/15 00:07:51;;;;;;;3.50;1.67;;;;;;;6.20;100.00;100620.38;337076;28;4598;-77
2023/12/15 00:08:03;;;;;;;2.97;1.73;;;;;;;6.23;100.00;100624.66;335241;28;17921;-77
2023/12/15 00:08:15;;;;;;;3.03;1.95;;;;;;;6.22;100.00;100622.06;337140;28;5015;-77
2023/12/15 00:08:28;;;;;;;3.05;1.77;;;;;;;6.17;100.00;100624.66;335496;28;18431;-77
2023/12/15 00:08:41;;;;;;;3.33;1.98;;;;;;;6.19;100.00;100628.97;338768;28;5474;-77
2023/12/15 00:08:53;;;;;;;2.97;1.90;;;;;;;6.21;100.00;100634.13;330877;28;18168;-78
2023/12/15 00:09:05;;;;;;;3.42;2.00;;;;;;;6.20;100.00;100627.25;338269;28;5240;-77
2023/12/15 00:09:17;;;;;;;4.00;1.87;;;;;;;6.19;100.00;100625.53;333095;29;13565;-78
2023/12/15 00:09:29;;;;;;;3.53;1.90;;;;;;;6.14;100.00;100635.00;335954;29;4550;-77
2023/12/15 00:09:41;;;;;;;4.70;2.08;;;;;;;6.17;100.00;100627.25;336016;29;4624;-77
2023/12/15 00:09:53;;;;;;;6.00;2.53;;;;;;;6.20;100.00;100629.84;333053;29;18050;-77
2023/12/15 00:10:06;;;;;;;5.82;2.65;;;;;;;6.24;100.00;100621.25;336054;29;4654;-76
2023/12/15 00:10:19;;;;;;;5.28;2.53;;;;;;;6.24;100.00;100626.41;334615;28;15640;-77
2023/12/15 00:10:31;;;;;;;5.38;2.22;;;;;;;6.28;100.00;100628.13;337021;28;4548;-77
2023/12/15 00:10:43;;;;;;;4.70;2.17;;;;;;;6.28;100.00;100630.72;335085;28;4630;-77
2023/12/15 00:10:55;;;;;;;4.85;1.98;;;;;;;6.30;100.00;100630.69;337403;28;4692;-77
2023/12/15 00:11:07;;;;;;;5.22;2.08;;;;;;;6.31;100.00;100633.28;335166;28;5476;-77
2023/12/15 00:11:19;;;;;;;5.07;2.13;;;;;;;6.32;100.00;100627.25;337134;28;5933;-78
2023/12/15 00:11:31;;;;;;;3.58;2.13;;;;;;;6.32;100.00;100627.25;336163;28;5010;-77
2023/12/15 00:11:43;;;;;;;3.33;2.00;;;;;;;6.35;100.00;100632.41;332912;28;18005;-77
2023/12/15 00:11:55;;;;;;;3.55;1.80;;;;;;;6.35;100.00;100629.84;336060;28;4539;-77
2023/12/15 00:12:07;;;;;;;3.58;1.70;;;;;;;6.30;100.00;100631.56;333281;28;12385;-77
2023/12/15 00:12:19;;;;;;;3.17;1.75;;;;;;;6.32;100.00;100635.00;334427;29;5843;-78
2023/12/15 00:12:31;;;;;;;3.25;1.60;;;;;;;6.35;100.00;100629.84;334696;29;4579;-77
2023/12/15 00:12:43;;;;;;;3.40;1.77;;;;;;;6.37;100.00;100633.28;331410;29;19273;-78
2023/12/15 00:12:55;;;;;;;3.65;1.67;;;;;;;6.39;100.00;100635.88;334812;29;4603;-77
2023/12/15 00:13:07;;;;;;;4.13;1.98;;;;;;;6.39;100.00;100630.69;330366;29;5032;-77
2023/12/15 00:13:19;;;;;;;4.05;1.95;;;;;;;6.39;100.00;100630.69;332076;29;18205;-77
2023/12/15 00:13:32;;;;;;;3.88;1.83;;;;;;;6.38;100.00;100627.25;334959;29;5484;-77
2023/12/15 00:13:44;;;;;;;3.92;1.60;;;;;;;6.36;99.96;100636.75;333102;28;17930;-77
2023/12/15 00:13:56;;;;;;;4.43;1.67;;;;;;;6.37;100.00;100635.84;334585;29;4798;-77
2023/12/15 00:14:08;;;;;;;3.85;1.70;;;;;;;6.39;100.00;100639.31;334575;29;5512;-77
2023/12/15 00:14:20;;;;;;;4.03;1.80;;;;;;;6.22;100.00;100640.16;331837;29;18130;-78
2023/12/15 00:14:32;;;;;;;4.45;1.77;;;;;;;6.27;100.00;100643.59;329906;29;4580;-78
2023/12/15 00:14:44;;;;;;;4.47;1.85;;;;;;;6.24;100.00;100639.31;331061;28;18000;-77
2023/12/15 00:14:56;;;;;;;3.53;1.90;;;;;;;6.24;100.00;100641.00;334565;28;4556;-78
2023/12/15 00:15:09;;;;;;;3.55;1.88;;;;;;;6.24;100.00;100639.31;332317;28;12641;-77
2023/12/15 00:15:22;;;;;;;3.55;1.77;;;;;;;6.26;100.00;100628.97;333178;29;5434;-77
2023/12/15 00:15:34;;;;;;;4.55;1.92;;;;;;;6.32;100.00;100637.59;329481;29;5401;-77
2023/12/15 00:15:46;;;;;;;4.18;1.90;;;;;;;6.36;100.00;100639.31;332149;29;4954;-77
2023/12/15 00:15:58;;;;;;;3.78;1.80;;;;;;;6.36;100.00;100631.56;332310;29;4587;-77
2023/12/15 00:16:10;;;;;;;3.28;1.52;;;;;;;6.38;100.00;100639.31;330543;29;18797;-77
2023/12/15 00:16:22;;;;;;;3.95;1.67;;;;;;;6.43;100.00;100629.00;333076;29;4712;-78
2023/12/15 00:16:34;;;;;;;3.83;1.80;;;;;;;6.45;100.00;100641.03;328510;29;17861;-78
2023/12/15 00:16:46;;;;;;;3.67;2.03;;;;;;;6.46;100.00;100636.72;332273;29;5994;-77
2023/12/15 00:16:58;;;;;;;4.15;2.13;;;;;;;6.46;99.86;100641.88;331352;29;12174;-75
2023/12/15 00:17:10;;;;;;;4.68;2.20;;;;;;;6.45;99.93;100635.88;331945;29;18549;-76
2023/12/15 00:17:22;;;;;;;4.47;2.15;;;;;;;6.47;99.77;100641.03;328792;29;5253;-76
2023/12/15 00:17:34;;;;;;;3.60;1.90;;;;;;;6.44;100.00;100629.00;331922;29;13219;-78
2023/12/15 00:17:47;;;;;;;4.05;1.88;;;;;;;6.41;99.79;100639.31;334286;29;4563;-77
2023/12/15 00:17:59;;;;;;;5.55;2.00;;;;;;;6.44;99.70;100635.84;333677;29;13207;-77
2023/12/15 00:18:12;;;;;;;5.82;2.17;;;;;;;6.43;99.39;100634.16;336219;28;4840;-76
2023/12/15 00:18:24;;;;;;;4.35;2.28;;;;;;;6.44;99.33;100633.28;337464;28;5739;-76
2023/12/15 00:18:36;;;;;;;4.38;2.28;;;;;;;6.43;99.56;100634.16;334152;28;18975;-76
2023/12/15 00:18:48;;;;;;;3.83;2.22;;;;;;;6.45;99.57;100640.19;336836;28;5463;-76
2023/12/15 00:19:00;;;;;;;3.42;2.10;;;;;;;6.49;99.51;100641.91;334731;28;18844;-77
2023/12/15 00:19:12;;;;;;;3.45;2.03;;;;;;;6.48;98.73;100635.00;337096;28;5476;-76
2023/12/15 00:19:25;;;;;;;2.92;1.77;;;;;;;6.46;98.81;100636.72;334212;28;16433;-77
2023/12/15 00:19:37;;;;;;;3.42;1.88;;;;;;;6.50;98.70;100641.03;337102;28;5533;-77
2023/12/15 00:19:49;;;;;;;4.75;2.13;;;;;;;6.50;98.42;100639.31;337038;28;4719;-76
2023/12/15 00:20:01;;;;;;;4.85;2.35;;;;;;;6.49;99.16;100636.72;329489;28;19035;-76
2023/12/15 00:20:13;;;;;;;4.75;2.50;;;;;;;6.42;98.28;100637.56;337093;28;4554;-77
2023/12/15 00:20:26;;;;;;;5.60;2.35;;;;;;;6.38;99.02;100635.00;333827;28;18574;-76
2023/12/15 00:20:38;;;;;;;5.57;1.98;;;;;;;6.37;99.54;100637.59;337436;28;5040;-77
2023/12/15 00:20:50;;;;;;;4.00;1.98;;;;;;;6.30;99.17;100641.91;334579;28;18000;-77
2023/12/15 00:21:02;;;;;;;4.22;2.22;;;;;;;6.30;99.34;100641.00;337083;28;4532;-76
2023/12/15 00:21:14;;;;;;;4.22;2.17;;;;;;;6.27;99.54;100641.88;334435;28;8049;-78
2023/12/15 00:21:26;;;;;;;3.80;1.90;;;;;;;6.24;99.76;100647.06;336040;29;5572;-77
2023/12/15 00:21:39;;;;;;;3.60;2.08;;;;;;;6.24;99.54;100641.00;331388;29;5420;-77
2023/12/15 00:21:51;;;;;;;3.60;2.45;;;;;;;6.26;100.00;100645.34;333599;29;18980;-76
2023/12/15 00:22:03;;;;;;;4.35;2.70;;;;;;;6.24;99.86;100641.00;336028;29;4625;-76
2023/12/15 00:22:15;;;;;;;4.30;2.50;;;;;;;6.25;99.40;100648.75;336065;29;7887;-76
2023/12/15 00:22:27;;;;;;;3.53;2.17;;;;;;;6.25;99.57;100643.59;334224;28;18773;-77
2023/12/15 00:22:39;;;;;;;4.13;1.88;;;;;;;6.27;100.00;100647.03;337013;28;5207;-76
2023/12/15 00:22:51;;;;;;;5.00;2.00;;;;;;;6.31;99.53;100648.75;334762;28;18442;-77
2023/12/15 00:23:03;;;;;;;4.50;2.20;;;;;;;6.36;99.36;100641.03;333650;28;4960;-77
2023/12/15 00:23:15;;;;;;;4.32;2.40;;;;;;;6.31;99.91;100638.44;336350;28;12980;-77
2023/12/15 00:23:28;;;;;;;4.00;2.38;;;;;;;6.31;99.86;100637.59;338184;28;4590;-77
2023/12/15 00:23:40;;;;;;;4.38;2.47;;;;;;;6.25;99.98;100647.91;338552;28;6010;-77
2023/12/15 00:23:52;;;;;;;4.88;2.50;;;;;;;6.25;99.78;100638.44;335929;28;18349;-76
2023/12/15 00:24:08;;;;;;;5.75;2.92;;;;;;;6.26;100.00;100644.44;338459;28;4928;-76
2023/12/15 00:24:20;;;;;;;5.45;2.78;;;;;;;6.30;99.99;100652.22;338163;28;17862;-77
2023/12/15 00:24:32;;;;;;;4.68;2.42;;;;;;;6.36;99.77;100641.03;330855;28;17842;-76
2023/12/15 00:24:45;;;;;;;3.90;2.30;;;;;;;6.36;99.91;100641.91;336828;28;5358;-77
2023/12/15 00:24:57;;;;;;;4.18;2.40;;;;;;;6.39;100.00;100641.88;331919;28;18042;-77
2023/12/15 00:25:09;;;;;;;4.07;2.42;;;;;;;6.42;99.36;100642.75;338141;28;4860;-76
2023/12/15 00:25:21;;;;;;;5.18;3.13;;;;;;;6.44;100.00;100641.91;334980;28;9159;-76
2023/12/15 00:25:33;;;;;;;5.93;3.13;;;;;;;6.49;99.34;100647.06;337858;28;4810;-76
2023/12/15 00:25:46;;;;;;;5.18;2.58;;;;;;;6.51;99.34;100645.34;337638;28;4684;-77
2023/12/15 00:25:57;;;;;;;4.28;2.17;;;;;;;6.52;99.17;100644.47;334648;28;18054;-77
2023/12/15 00:26:10;;;;;;;4.30;2.15;;;;;;;6.52;99.35;100641.88;333138;28;4572;-77
2023/12/15 00:26:22;;;;;;;4.53;2.10;;;;;;;6.51;98.83;100640.19;337393;28;5270;-77
2023/12/15 00:26:35;;;;;;;5.43;2.20;;;;;;;6.50;99.08;100641.03;334259;28;18084;-77
2023/12/15 00:26:47;;;;;;;4.75;2.25;;;;;;;6.45;99.17;100647.94;335201;28;5493;-76
2023/12/15 00:26:59;;;;;;;4.45;2.55;;;;;;;6.50;99.53;100649.66;337655;28;4645;-76
2023/12/15 00:27:11;;;;;;;4.07;2.50;;;;;;;6.50;99.41;100647.06;337615;28;5442;-76
2023/12/15 00:27:23;;;;;;;4.10;2.72;;;;;;;6.54;99.37;100647.91;334614;28;17708;-76
2023/12/15 00:27:35;;;;;;;3.65;2.38;;;;;;;6.54;99.07;100650.50;333658;28;4698;-76
2023/12/15 00:27:48;;;;;;;3.67;2.42;;;;;;;6.57;98.67;100650.50;335492;28;12918;-77
2023/12/15 00:28:01;;;;;;;4.15;2.58;;;;;;;6.56;98.65;100653.94;335586;28;4572;-76
2023/12/15 00:28:13;;;;;;;5.50;2.53;;;;;;;6.57;98.60;100650.50;333239;28;18138;-77
2023/12/15 00:28:25;;;;;;;5.75;2.17;;;;;;;6.53;98.50;100651.38;336674;28;5046;-77
2023/12/15 00:28:37;;;;;;;5.10;2.50;;;;;;;6.53;98.63;100644.47;337422;28;4709;-77
2023/12/15 00:28:49;;;;;;;6.22;2.95;;;;;;;6.56;98.52;100649.66;334485;28;18002;-77
2023/12/15 00:29:03;;;;;;;6.35;3.03;;;;;;;6.57;98.58;100645.34;337404;28;5758;-76
2023/12/15 00:29:15;;;;;;;5.38;2.72;;;;;;;6.55;98.89;100647.06;335206;28;16542;-76
2023/12/15 00:29:27;;;;;;;5.13;2.70;;;;;;;6.54;98.93;100645.31;336632;28;5622;-76
2023/12/15 00:29:39;;;;;;;4.43;2.83;;;;;;;6.56;98.99;100643.59;333003;28;19305;-76
2023/12/15 00:29:52;;;;;;;4.43;2.63;;;;;;;6.57;98.73;100647.94;335979;28;4575;-77
2023/12/15 00:30:05;;;;;;;4.07;2.40;;;;;;;6.57;98.93;100647.94;333624;28;18343;-77
2023/12/15 00:30:17;;;;;;;4.35;2.22;;;;;;;6.61;98.73;100649.63;337426;28;4709;-76
2023/12/15 00:30:29;;;;;;;4.70;2.10;;;;;;;6.59;98.57;100643.63;330760;28;5140;-77
2023/12/15 00:30:41;;;;;;;5.25;2.35;;;;;;;6.58;98.62;100644.50;337879;28;5291;-76
2023/12/15 00:30:53;;;;;;;4.18;2.28;;;;;;;6.57;98.09;100642.75;335002;28;10065;-76
2023/12/15 00:31:05;;;;;;;4.45;2.08;;;;;;;6.58;98.20;100647.06;337458;28;4528;-77
2023/12/15 00:31:17;;;;;;;6.07;2.38;;;;;;;6.60;98.26;100650.53;337199;28;4577;-77
2023/12/15 00:31:29;;;;;;;6.22;2.58;;;;;;;6.59;98.50;100648.78;334656;28;18082;-77
2023/12/15 00:31:42;;;;;;;6.20;3.25;;;;;;;6.53;98.45;100649.63;337588;28;4734;-77
2023/12/15 00:31:54;;;;;;;6.15;3.35;;;;;;;6.52;98.45;100649.63;337180;28;5187;-77
2023/12/15 00:32:06;;;;;;;5.82;3.45;;;;;;;6.56;98.64;100643.59;330511;28;18507;-76
2023/12/15 00:32:18;;;;;;;6.90;4.20;;;;;;;6.48;98.81;100645.31;337270;28;4708;-77
2023/12/15 00:32:30;;;;;;;7.35;4.40;;;;;;;6.44;98.79;100648.78;334816;28;4706;-77
2023/12/15 00:32:43;;;;;;;7.68;3.97;;;;;;;6.46;98.46;100647.06;337566;28;4755;-77
2023/12/15 00:32:55;;;;;;;6.35;3.28;;;;;;;6.50;99.06;100643.59;334867;28;18152;-76
2023/12/15 00:33:07;;;;;;;8.25;4.22;;;;;;;6.52;98.87;100647.06;338030;28;4536;-76
2023/12/15 00:33:20;;;;;;;8.18;4.68;;;;;;;6.53;98.53;100646.19;335042;28;16799;-76
2023/12/15 00:33:32;;;;;;;7.38;4.40;;;;;;;6.54;98.58;100647.91;336197;28;17096;-77
2023/12/15 00:33:44;;;;;;;8.65;4.28;;;;;;;6.43;98.85;100647.06;330752;28;5269;-76
2023/12/15 00:33:56;;;;;;;8.82;4.45;;;;;;;6.45;98.65;100653.09;338135;28;5475;-76
2023/12/15 00:34:08;;;;;;;8.48;4.82;;;;;;;6.51;99.28;100653.09;337663;28;5318;-76
2023/12/15 00:34:20;;;;;;;7.07;4.50;;;;;;;6.53;98.55;100653.94;334594;28;18055;-78
2023/12/15 00:34:33;;;;;;;5.97;3.35;;;;;;;6.58;99.00;100647.94;337302;28;5662;-77
2023/12/15 00:34:45;;;;;;;4.45;2.63;;;;;;;6.61;99.05;100647.06;337283;28;17867;-76
2023/12/15 00:34:57;;;;;;;3.97;2.42;;;;;;;6.57;98.60;100651.34;329261;28;17701;-77
2023/12/15 00:35:09;;;;;;;4.53;2.38;;;;;;;6.55;98.58;100652.22;337604;28;4573;-76
2023/12/15 00:35:21;;;;;;;5.22;2.28;;;;;;;6.54;98.23;100650.50;334652;28;18009;-76
2023/12/15 00:35:33;;;;;;;5.38;2.35;;;;;;;6.51;98.26;100655.66;337333;28;4580;-77
2023/12/15 00:35:46;;;;;;;5.65;3.20;;;;;;;6.40;98.64;100648.78;336762;28;11527;-77
2023/12/15 00:35:59;;;;;;;6.75;4.03;;;;;;;6.46;98.35;100654.78;333988;28;19040;-77
2023/12/15 00:36:11;;;;;;;7.63;4.78;;;;;;;6.47;98.20;100646.19;334145;28;18013;-77
2023/12/15 00:36:23;;;;;;;7.03;4.72;;;;;;;6.49;98.62;100652.22;332312;28;4648;-77
2023/12/15 00:36:35;;;;;;;8.23;5.22;;;;;;;6.51;99.08;100653.09;335870;28;13422;-76
2023/12/15 00:36:47;;;;;;;9.38;5.53;;;;;;;6.51;98.67;100650.50;338656;28;5384;-77
2023/12/15 00:36:59;;;;;;;8.93;5.25;;;;;;;6.55;99.04;100652.22;338913;28;4670;-77
2023/12/15 00:37:11;;;;;;;7.90;4.88;;;;;;;6.55;98.64;100652.22;335520;28;17775;-76
2023/12/15 00:37:23;;;;;;;7.32;4.18;;;;;;;6.53;98.30;100653.94;338764;28;4618;-76
2023/12/15 00:37:35;;;;;;;7.70;3.75;;;;;;;6.56;98.62;100651.34;338212;28;16829;-78
2023/12/15 00:37:48;;;;;;;7.47;3.92;;;;;;;6.63;98.17;100655.66;336025;28;17818;-77
2023/12/15 00:38:00;;;;;;;8.40;4.20;;;;;;;6.65;98.10;100648.78;333087;28;5621;-77
2023/12/15 00:38:12;;;;;;;7.60;3.72;;;;;;;6.64;98.42;100652.25;334395;28;4571;-76
2023/12/15 00:38:24;;;;;;;5.47;2.88;;;;;;;6.61;98.11;100657.41;337210;28;5327;-77
2023/12/15 00:38:36;;;;;;;3.58;2.25;;;;;;;6.64;97.82;100654.81;332524;28;9960;-76
2023/12/15 00:38:48;;;;;;;3.58;1.95;;;;;;;6.63;97.24;100650.50;336045;28;4580;-77
2023/12/15 00:39:01;;;;;;;4.13;1.90;;;;;;;6.69;97.35;100654.81;328445;28;4715;-76
2023/12/15 00:39:13;;;;;;;4.20;1.90;;;;;;;6.70;97.38;100657.41;333645;28;18000;-77
2023/12/15 00:39:25;;;;;;;4.05;2.00;;;;;;;6.66;96.99;100655.69;336341;28;4664;-77
2023/12/15 00:39:37;;;;;;;4.05;2.25;;;;;;;6.68;96.84;100653.06;332681;28;5492;-76
2023/12/15 00:39:49;;;;;;;4.68;2.47;;;;;;;6.64;96.61;100652.25;335715;28;4581;-76
2023/12/15 00:40:02;;;;;;;6.75;3.00;;;;;;;6.59;96.94;100659.13;337484;28;4615;-76
2023/12/15 00:40:14;;;;;;;6.40;2.80;;;;;;;6.61;97.18;100652.22;335766;28;17892;-78
2023/12/15 00:40:26;;;;;;;5.80;2.47;;;;;;;6.64;96.84;100652.25;337611;28;5448;-77
2023/12/15 00:40:38;;;;;;;5.65;2.67;;;;;;;6.65;97.27;100653.94;333772;28;19092;-77
2023/12/15 00:40:50;;;;;;;5.13;3.03;;;;;;;6.69;97.61;100652.22;332541;28;5211;-77
2023/12/15 00:41:02;;;;;;;6.43;3.35;;;;;;;6.70;97.84;100657.41;333976;28;13382;-76
2023/12/15 00:41:14;;;;;;;6.82;3.33;;;;;;;6.76;97.23;100659.97;336183;28;4658;-77
2023/12/15 00:41:27;;;;;;;5.45;2.63;;;;;;;6.78;97.54;100655.66;336284;28;4604;-77
2023/12/15 00:41:39;;;;;;;4.28;2.22;;;;;;;6.86;96.74;100658.25;333055;28;18052;-77
2023/12/15 00:41:51;;;;;;;4.35;2.33;;;;;;;6.85;96.53;100656.50;333577;28;5483;-76
2023/12/15 00:42:05;;;;;;;4.40;2.35;;;;;;;6.85;96.61;100655.66;333529;28;17863;-77
2023/12/15 00:42:17;;;;;;;3.92;2.03;;;;;;;6.79;96.43;100662.53;334929;29;5455;-77
2023/12/15 00:42:29;;;;;;;4.65;2.08;;;;;;;6.78;97.11;100655.66;329058;28;19048;-76
2023/12/15 00:42:41;;;;;;;5.25;2.55;;;;;;;6.74;96.90;100658.25;337692;28;5572;-77
2023/12/15 00:42:53;;;;;;;5.35;2.60;;;;;;;6.70;97.18;100660.00;337420;28;5146;-77
2023/12/15 00:43:05;;;;;;;5.07;2.10;;;;;;;6.68;97.07;100659.13;330663;28;18182;-77
2023/12/15 00:43:18;;;;;;;6.93;2.13;;;;;;;6.69;97.30;100660.84;336410;28;5444;-76
2023/12/15 00:43:30;;;;;;;6.90;2.05;;;;;;;6.68;97.48;100664.28;333995;28;17771;-77
2023/12/15 00:43:42;;;;;;;4.97;2.10;;;;;;;6.73;97.51;100662.56;335694;28;5589;-77
2023/12/15 00:43:54;;;;;;;5.40;2.22;;;;;;;6.76;97.17;100666.84;335502;28;13089;-77
2023/12/15 00:44:06;;;;;;;5.15;2.20;;;;;;;6.73;97.32;100662.56;338673;28;4519;-77
2023/12/15 00:44:18;;;;;;;4.43;2.22;;;;;;;6.67;97.39;100662.56;337058;28;5282;-76
2023/12/15 00:44:32;;;;;;;4.45;2.40;;;;;;;6.66;97.21;100660.84;338426;28;4593;-77
2023/12/15 00:44:45;;;;;;;3.53;2.33;;;;;;;6.66;97.41;100660.84;335999;28;18833;-76
2023/12/15 00:44:57;;;;;;;4.25;2.30;;;;;;;6.65;97.40;100664.28;338094;28;5111;-77
2023/12/15 00:45:09;;;;;;;4.32;2.20;;;;;;;6.62;96.95;100664.28;334496;28;18622;-76
2023/12/15 00:45:21;;;;;;;4.95;2.22;;;;;;;6.62;97.15;100659.13;336946;28;4564;-76
2023/12/15 00:45:33;;;;;;;6.47;2.58;;;;;;;6.65;97.67;100666.88;335123;28;5418;-76
2023/12/15 00:45:45;;;;;;;5.85;2.40;;;;;;;6.65;97.52;100661.69;337316;28;5940;-77
2023/12/15 00:45:58;;;;;;;4.00;2.13;;;;;;;6.66;97.34;100658.28;335632;28;4724;-77
2023/12/15 00:46:10;;;;;;;4.00;1.95;;;;;;;6.68;97.38;100664.28;333573;28;18117;-77
2023/12/15 00:46:22;;;;;;;4.25;1.83;;;;;;;6.66;97.54;100660.84;336411;28;4683;-77
2023/12/15 00:46:34;;;;;;;5.50;2.20;;;;;;;6.68;97.52;100659.13;336136;28;4933;-77
2023/12/15 00:46:46;;;;;;;6.20;2.78;;;;;;;6.67;97.28;100661.69;329310;28;18198;-77
2023/12/15 00:46:58;;;;;;;6.65;3.40;;;;;;;6.64;97.32;100662.56;336176;28;6013;-77
2023/12/15 00:47:10;;;;;;;6.75;3.17;;;;;;;6.69;97.22;100660.84;333416;28;7928;-77
2023/12/15 00:47:23;;;;;;;5.63;2.45;;;;;;;6.70;97.39;100666.84;337511;28;5743;-76
2023/12/15 00:47:35;;;;;;;4.15;2.13;;;;;;;6.67;97.05;100657.38;335197;28;18283;-77
2023/12/15 00:47:47;;;;;;;4.40;2.10;;;;;;;6.62;97.13;100659.13;336209;28;5387;-76
2023/12/15 00:48:00;;;;;;;3.88;1.90;;;;;;;6.67;97.22;100662.56;331856;28;19515;-77
2023/12/15 00:48:12;;;;;;;3.45;1.70;;;;;;;6.68;97.24;100661.72;335089;28;16984;-77
2023/12/15 00:48:24;;;;;;;4.10;2.00;;;;;;;6.69;96.89;100659.97;335401;28;8614;-76
2023/12/15 00:48:36;;;;;;;5.35;2.25;;;;;;;6.70;97.01;100665.16;337341;28;4700;-77
2023/12/15 00:48:48;;;;;;;6.35;2.55;;;;;;;6.68;97.25;100664.28;337855;28;4567;-77
2023/12/15 00:49:00;;;;;;;6.10;2.63;;;;;;;6.66;97.09;100660.84;334503;28;13129;-77
2023/12/15 00:49:12;;;;;;;4.38;2.13;;;;;;;6.66;97.19;100663.44;337622;28;5499;-76
2023/12/15 00:49:25;;;;;;;3.70;1.67;;;;;;;6.71;97.62;100668.59;336085;28;16160;-76
2023/12/15 00:49:37;;;;;;;4.13;1.80;;;;;;;6.74;97.08;100664.28;339280;28;4540;-76
2023/12/15 00:49:49;;;;;;;4.22;1.88;;;;;;;6.77;97.10;100666.84;338573;28;4614;-76
2023/12/15 00:50:01;;;;;;;3.88;1.92;;;;;;;6.79;97.15;100657.38;331128;28;18287;-78
2023/12/15 00:50:13;;;;;;;3.15;1.77;;;;;;;6.82;97.17;100660.81;337535;28;4632;-77
2023/12/15 00:50:28;;;;;;;2.50;1.63;;;;;;;6.76;97.17;100667.72;335281;28;4585;-77
2023/12/15 00:50:40;;;;;;;3.45;1.83;;;;;;;6.72;96.33;100663.44;334969;28;18291;-76
2023/12/15 00:50:53;;;;;;;4.07;1.90;;;;;;;6.72;96.69;100666.00;337680;28;4577;-76
2023/12/15 00:51:05;;;;;;;3.38;1.80;;;;;;;6.75;96.36;100670.31;336997;28;5333;-77
2023/12/15 00:51:17;;;;;;;4.13;2.05;;;;;;;6.78;96.30;100670.28;334349;28;17826;-76
2023/12/15 00:51:29;;;;;;;4.00;2.13;;;;;;;6.78;96.21;100675.47;337392;28;5226;-77
2023/12/15 00:51:41;;;;;;;3.30;2.10;;;;;;;6.74;96.53;100669.47;334860;28;18897;-76
2023/12/15 00:51:54;;;;;;;2.83;1.90;;;;;;;6.72;96.54;100671.19;335820;28;5718;-77
2023/12/15 00:52:06;;;;;;;3.10;1.70;;;;;;;6.69;96.77;100666.00;333504;28;18051;-76
2023/12/15 00:52:18;;;;;;;4.22;2.05;;;;;;;6.69;96.40;100673.75;331458;28;5115;-77
2023/12/15 00:52:30;;;;;;;4.22;2.00;;;;;;;6.71;96.62;100669.44;332829;28;13835;-76
2023/12/15 00:52:43;;;;;;;3.58;1.90;;;;;;;6.71;96.32;100674.63;334532;29;5851;-76
2023/12/15 00:52:57;;;;;;;3.63;2.03;;;;;;;6.70;96.11;100666.84;332432;28;13528;-76
2023/12/15 00:53:09;;;;;;;3.80;2.25;;;;;;;6.71;96.54;100669.44;334959;29;17034;-76
2023/12/15 00:53:21;;;;;;;3.65;2.13;;;;;;;6.73;96.36;100672.03;334027;28;16504;-76
2023/12/15 00:53:33;;;;;;;3.78;2.15;;;;;;;6.74;96.30;100679.78;336734;28;5543;-76
2023/12/15 00:53:45;;;;;;;4.32;2.28;;;;;;;6.66;95.73;100676.34;336104;29;5535;-77
2023/12/15 00:53:57;;;;;;;4.28;1.98;;;;;;;6.65;95.67;100671.19;328292;29;18369;-77
2023/12/15 00:54:09;;;;;;;4.60;1.90;;;;;;;6.66;96.30;100670.31;335820;29;4730;-77
2023/12/15 00:54:22;;;;;;;5.93;2.20;;;;;;;6.65;95.96;100674.63;333881;28;14248;-77
2023/12/15 00:54:34;;;;;;;5.30;2.07;;;;;;;6.62;95.95;100673.75;337226;28;4798;-77
2023/12/15 00:54:46;;;;;;;4.60;1.90;;;;;;;6.57;96.24;100674.59;337561;28;4599;-77
2023/12/15 00:54:58;;;;;;;3.78;2.05;;;;;;;6.45;96.47;100677.19;334720;28;18142;-76
2023/12/15 00:55:10;;;;;;;5.07;2.42;;;;;;;6.45;96.25;100676.34;336993;28;4941;-78
2023/12/15 00:55:22;;;;;;;4.72;2.58;;;;;;;6.44;96.74;100677.19;335904;28;4722;-76
2023/12/15 00:55:34;;;;;;;4.75;2.67;;;;;;;6.44;96.81;100683.22;329434;28;18252;-77
2023/12/15 00:55:46;;;;;;;4.28;2.58;;;;;;;6.44;96.73;100684.94;337056;28;4754;-77
2023/12/15 00:56:00;;;;;;;4.07;2.58;;;;;;;6.47;96.61;100677.19;335108;28;18275;-76
2023/12/15 00:56:12;;;;;;;4.97;2.55;;;;;;;6.50;97.05;100687.50;338825;28;5277;-77
2023/12/15 00:56:25;;;;;;;5.90;2.63;;;;;;;6.52;97.35;100688.38;334133;28;17965;-78
2023/12/15 00:56:37;;;;;;;6.47;2.60;;;;;;;6.45;96.66;100686.66;335120;28;12998;-77
2023/12/15 00:56:49;;;;;;;6.32;2.65;;;;;;;6.46;96.76;100685.78;332506;28;4612;-77
2023/12/15 00:57:01;;;;;;;5.32;2.20;;;;;;;6.49;97.13;100683.22;336486;28;4831;-77
2023/12/15 00:57:13;;;;;;;5.82;2.13;;;;;;;6.43;97.02;100683.22;330342;28;5177;-76
2023/12/15 00:57:25;;;;;;;6.55;2.42;;;;;;;6.44;97.52;100682.34;335789;28;5418;-77
2023/12/15 00:57:37;;;;;;;5.57;2.38;;;;;;;6.46;97.71;100683.22;334103;28;5681;-77
2023/12/15 00:57:50;;;;;;;5.07;2.22;;;;;;;6.45;97.91;100681.50;336197;28;4739;-76
2023/12/15 00:58:02;;;;;;;5.85;2.20;;;;;;;6.46;97.91;100678.03;335724;28;4610;-77
2023/12/15 00:58:14;;;;;;;5.72;2.25;;;;;;;6.49;97.58;100684.06;332695;28;18299;-77
2023/12/15 00:58:26;;;;;;;4.55;2.05;;;;;;;6.48;97.20;100682.38;331865;28;4690;-77